Boyarka, Ukraine
Current Conditions -  °F | °C
As of 5:00 PM on Thursday 29 Jan 2015 (Local Time) from UKKK Reporting Station
Broken Clouds Broken Clouds  
Wind Chill: 28°   Ceiling: 1500
Heat Index: 34°   Visibility: 6mi
Dew Point: 28°   Wind: 7mph
Humidity: 81%   Direction: 190°S
Pressure: 29.65"   Gusts: NA
Location:  50.32°N, 30.32°E
Report Text: UKKK 291400Z 19003MPS 160V230 9999 BKN015 01/M02 Q1004 08290057 NOSIG
Loading
Personal Weather Stations






























Interactive Weather Map New forecast layout! Learn more

10-Day Weather Forecast

Advertisements
Track Severe Weather on mobile